createdAt,value
2022-10-16T00:01:26.569Z,85.29
2022-10-16T00:03:53.952Z,85.61
2022-10-16T00:06:22.187Z,85.64
2022-10-16T00:08:49.607Z,85.31
2022-10-16T00:11:21.858Z,85.51
2022-10-16T00:13:49.641Z,86.36
2022-10-16T00:16:16.877Z,86.51
2022-10-16T00:18:45.581Z,85.94
2022-10-16T00:21:16.849Z,86.19
2022-10-16T00:23:45.990Z,86.46
2022-10-16T00:26:14.445Z,86.43
2022-10-16T00:28:42.111Z,86.29
2022-10-16T00:31:10.389Z,86.01
2022-10-16T00:33:38.267Z,85.71
2022-10-16T00:36:06.331Z,85.88
2022-10-16T00:38:33.393Z,85.80
2022-10-16T00:41:00.682Z,85.59
2022-10-16T00:43:41.140Z,85.87
2022-10-16T00:46:15.795Z,85.93
2022-10-16T00:48:43.565Z,85.77
2022-10-16T00:51:10.612Z,85.45
2022-10-16T00:53:37.724Z,86.30
2022-10-16T00:56:04.907Z,86.00
2022-10-16T00:58:32.013Z,86.19
2022-10-16T01:00:59.435Z,86.11
2022-10-16T01:03:28.433Z,85.71
2022-10-16T01:06:16.050Z,85.70
2022-10-16T01:08:43.120Z,85.86
2022-10-16T01:11:22.774Z,85.79
2022-10-16T01:13:51.230Z,86.13
2022-10-16T01:16:25.400Z,86.02
2022-10-16T01:18:55.336Z,85.78
2022-10-16T01:21:23.800Z,86.03
2022-10-16T01:24:00.630Z,85.68
2022-10-16T01:26:57.295Z,86.10
2022-10-16T01:29:28.186Z,85.90
2022-10-16T01:31:57.452Z,85.95
2022-10-16T01:34:49.537Z,85.93
2022-10-16T01:37:17.778Z,86.30
2022-10-16T01:39:46.681Z,86.42
2022-10-16T01:42:16.381Z,86.12
2022-10-16T01:44:43.589Z,85.71
2022-10-16T01:47:10.665Z,86.00
2022-10-16T01:49:37.977Z,86.13
2022-10-16T01:52:06.447Z,86.22
2022-10-16T01:54:35.184Z,86.03
2022-10-16T01:57:02.265Z,86.38
2022-10-16T01:59:30.157Z,86.27
2022-10-16T02:01:57.913Z,85.91
2022-10-16T02:04:29.231Z,86.22
2022-10-16T02:06:56.293Z,86.12
2022-10-16T02:09:25.083Z,86.56
2022-10-16T02:11:52.821Z,87.00
2022-10-16T02:14:25.659Z,86.70
2022-10-16T02:16:57.378Z,86.46
2022-10-16T02:19:24.426Z,86.90
2022-10-16T02:21:52.732Z,87.12
2022-10-16T02:24:40.169Z,86.86
2022-10-16T02:27:09.369Z,87.10
2022-10-16T02:29:38.873Z,86.86
2022-10-16T02:32:06.025Z,86.96
2022-10-16T02:34:33.187Z,86.55
2022-10-16T02:37:00.831Z,86.77
2022-10-16T02:39:28.383Z,87.08
2022-10-16T02:41:55.565Z,87.19
2022-10-16T02:44:22.602Z,87.25
2022-10-16T02:46:49.614Z,87.31
2022-10-16T02:49:16.628Z,87.20
2022-10-16T02:51:43.754Z,86.97
2022-10-16T02:54:10.832Z,87.19
2022-10-16T02:56:39.870Z,87.14
2022-10-16T02:59:07.028Z,86.86
2022-10-16T03:01:34.137Z,87.20
2022-10-16T03:04:01.307Z,87.65
2022-10-16T03:06:28.522Z,87.44
2022-10-16T03:08:55.597Z,87.61
2022-10-16T03:11:27.374Z,87.34
2022-10-16T03:13:54.388Z,87.59
2022-10-16T03:16:21.483Z,87.48
2022-10-16T03:18:51.138Z,87.65
2022-10-16T03:21:18.154Z,87.49
2022-10-16T03:23:45.350Z,87.85
2022-10-16T03:26:12.597Z,87.94
2022-10-16T03:28:39.947Z,87.67
2022-10-16T03:31:06.990Z,88.05
2022-10-16T03:33:34.279Z,87.60
2022-10-16T03:36:01.354Z,87.81
2022-10-16T03:38:28.697Z,88.00
2022-10-16T03:40:55.990Z,87.86
2022-10-16T03:43:23.055Z,88.09
2022-10-16T03:45:51.331Z,88.28
2022-10-16T03:48:21.406Z,88.29
2022-10-16T03:50:49.439Z,87.92
2022-10-16T03:53:16.529Z,88.24
2022-10-16T03:55:43.791Z,88.82
2022-10-16T03:58:11.369Z,88.26
2022-10-16T04:00:42.751Z,88.36
2022-10-16T04:03:09.961Z,88.31
2022-10-16T04:05:37.083Z,88.87
2022-10-16T04:08:04.284Z,89.06
2022-10-16T04:10:31.369Z,89.00
2022-10-16T04:12:59.123Z,88.98
2022-10-16T04:15:26.213Z,89.01
2022-10-16T04:17:53.604Z,88.95
2022-10-16T04:20:23.887Z,88.71
2022-10-16T04:22:50.892Z,88.65
2022-10-16T04:25:17.964Z,88.66
2022-10-16T04:27:46.184Z,88.86
2022-10-16T04:30:14.567Z,89.07
2022-10-16T04:32:42.099Z,89.13
2022-10-16T04:35:09.635Z,89.47
2022-10-16T04:37:36.884Z,89.37
2022-10-16T04:40:04.157Z,88.97
2022-10-16T04:42:31.869Z,89.00
2022-10-16T04:44:59.172Z,89.29
2022-10-16T04:47:26.386Z,89.13
2022-10-16T04:49:53.666Z,89.06
2022-10-16T04:52:22.556Z,88.78
2022-10-16T04:54:51.279Z,89.18
2022-10-16T04:57:19.057Z,89.19
2022-10-16T04:59:46.729Z,89.11
2022-10-16T05:02:13.770Z,89.27
2022-10-16T05:04:41.057Z,89.00
2022-10-16T05:07:08.100Z,89.35
2022-10-16T05:09:35.193Z,88.95
2022-10-16T05:12:02.216Z,89.59
2022-10-16T05:14:29.350Z,89.34
2022-10-16T05:16:56.585Z,89.29
2022-10-16T05:19:28.380Z,89.41
2022-10-16T05:21:56.657Z,89.43
2022-10-16T05:24:23.721Z,89.72
2022-10-16T05:26:50.975Z,89.44
2022-10-16T05:29:18.009Z,89.33
2022-10-16T05:31:45.769Z,89.04
2022-10-16T05:34:13.085Z,89.61
2022-10-16T05:36:40.212Z,88.89
2022-10-16T05:39:07.396Z,89.10
2022-10-16T05:41:34.434Z,88.62
2022-10-16T05:44:01.458Z,87.92
2022-10-16T05:46:28.725Z,88.12
2022-10-16T05:48:56.035Z,87.89
2022-10-16T05:51:23.141Z,87.36
2022-10-16T05:53:50.299Z,87.66
2022-10-16T05:56:17.346Z,87.76
2022-10-16T05:58:45.581Z,87.56
2022-10-16T06:01:17.323Z,87.43
2022-10-16T06:03:44.705Z,86.30
2022-10-16T06:06:12.604Z,85.59
2022-10-16T06:08:41.594Z,86.46
2022-10-16T06:11:09.340Z,85.68
2022-10-16T06:13:36.397Z,84.78
2022-10-16T06:16:06.714Z,83.94
2022-10-16T06:18:34.031Z,84.02
2022-10-16T06:21:01.085Z,83.64
2022-10-16T06:23:29.081Z,83.09
2022-10-16T06:26:04.710Z,82.59
2022-10-16T06:28:35.533Z,81.55
2022-10-16T06:31:05.749Z,81.11
2022-10-16T06:33:36.554Z,79.82
2022-10-16T06:36:03.883Z,79.21
2022-10-16T06:38:31.178Z,79.30
2022-10-16T06:40:58.385Z,78.57
2022-10-16T06:43:25.605Z,78.02
2022-10-16T06:45:56.802Z,77.63
2022-10-16T06:48:23.952Z,76.25
2022-10-16T06:51:00.622Z,75.70
2022-10-16T06:53:28.512Z,70.39
2022-10-16T06:55:55.538Z,62.74
2022-10-16T06:58:22.874Z,51.64
2022-10-16T07:00:49.968Z,42.01
2022-10-16T07:03:17.114Z,38.46
2022-10-16T07:05:44.246Z,36.26
2022-10-16T07:08:11.865Z,33.89
2022-10-16T07:10:38.896Z,35.16
2022-10-16T07:13:08.364Z,32.79
2022-10-16T07:15:36.148Z,32.47
2022-10-16T07:18:03.308Z,32.62
2022-10-16T07:20:30.361Z,33.28
2022-10-16T07:22:57.405Z,33.19
2022-10-16T07:25:24.533Z,32.28
2022-10-16T07:27:52.709Z,33.58
2022-10-16T07:30:19.831Z,33.30
2022-10-16T07:32:46.968Z,34.15
2022-10-16T07:35:15.323Z,35.13
2022-10-16T07:37:45.333Z,38.96
2022-10-16T07:40:12.374Z,46.36
2022-10-16T07:42:40.347Z,45.66
2022-10-16T07:45:07.599Z,40.19
2022-10-16T07:47:37.469Z,35.49
2022-10-16T07:50:05.096Z,34.05
2022-10-16T07:52:32.198Z,31.68
2022-10-16T07:54:59.527Z,31.16
2022-10-16T07:57:26.769Z,31.10
2022-10-16T07:59:54.642Z,29.30
2022-10-16T08:02:21.725Z,28.75
2022-10-16T08:04:48.838Z,28.63
2022-10-16T08:07:15.992Z,28.36
2022-10-16T08:09:43.010Z,28.44
2022-10-16T08:12:11.900Z,28.34
2022-10-16T08:14:40.643Z,27.92
2022-10-16T08:17:09.245Z,28.54
2022-10-16T08:19:36.294Z,27.30
2022-10-16T08:22:03.681Z,28.03
2022-10-16T08:24:32.235Z,28.38
2022-10-16T08:26:59.606Z,27.29
2022-10-16T08:29:26.679Z,26.61
2022-10-16T08:31:54.072Z,27.70
2022-10-16T08:34:21.089Z,27.36
2022-10-16T08:36:48.126Z,27.46
2022-10-16T08:39:15.341Z,26.55
2022-10-16T08:42:05.041Z,25.74
2022-10-16T08:44:47.350Z,26.77
2022-10-16T08:47:24.301Z,26.76
2022-10-16T08:49:58.056Z,27.10
2022-10-16T08:52:27.280Z,27.51
2022-10-16T08:54:54.922Z,27.15
2022-10-16T08:57:24.424Z,27.49
2022-10-16T08:59:52.462Z,27.57
2022-10-16T09:02:28.751Z,28.32
2022-10-16T09:04:57.032Z,27.93
2022-10-16T09:07:27.650Z,27.86
2022-10-16T09:10:03.872Z,28.46
2022-10-16T09:12:37.278Z,27.87
2022-10-16T09:15:04.607Z,26.75
2022-10-16T09:17:50.645Z,26.98
2022-10-16T09:20:17.639Z,27.49
2022-10-16T09:22:44.805Z,28.16
2022-10-16T09:25:13.633Z,27.42
2022-10-16T09:27:40.774Z,27.15
2022-10-16T09:30:16.668Z,26.44
2022-10-16T09:32:46.273Z,25.51
2022-10-16T09:35:20.914Z,25.68
2022-10-16T09:37:51.149Z,25.86
2022-10-16T09:40:30.072Z,26.12
2022-10-16T09:43:03.756Z,25.91
2022-10-16T09:45:33.280Z,25.09
2022-10-16T09:48:02.205Z,26.48
2022-10-16T09:50:29.342Z,26.36
2022-10-16T09:53:07.403Z,26.65
2022-10-16T09:55:36.766Z,26.37
2022-10-16T09:58:03.860Z,27.27
2022-10-16T10:00:33.081Z,27.42
2022-10-16T10:03:00.210Z,26.05
2022-10-16T10:05:28.019Z,26.09
2022-10-16T10:08:07.123Z,25.34
2022-10-16T10:10:36.089Z,24.53
2022-10-16T10:13:04.454Z,24.24
2022-10-16T10:15:34.429Z,23.41
2022-10-16T10:18:03.592Z,25.69
2022-10-16T10:20:35.562Z,25.09
2022-10-16T10:23:19.947Z,25.01
2022-10-16T10:26:06.044Z,25.16
2022-10-16T10:28:51.785Z,25.36
2022-10-16T10:31:25.066Z,25.00
2022-10-16T10:33:58.267Z,24.97
2022-10-16T10:36:41.463Z,25.29
2022-10-16T10:39:20.091Z,26.55
2022-10-16T10:41:53.414Z,25.80
2022-10-16T10:44:26.492Z,27.07
2022-10-16T10:47:16.623Z,28.30
2022-10-16T10:49:49.059Z,28.11
2022-10-16T10:52:25.431Z,27.56
2022-10-16T10:54:55.321Z,28.01
2022-10-16T10:57:41.352Z,27.98
2022-10-16T11:00:20.371Z,28.46
2022-10-16T11:02:49.648Z,28.28
2022-10-16T11:05:16.997Z,27.88
2022-10-16T11:07:50.359Z,27.94
2022-10-16T11:10:21.903Z,28.75
2022-10-16T11:12:50.808Z,29.99
2022-10-16T11:15:26.872Z,29.95
2022-10-16T11:18:12.860Z,29.79
2022-10-16T11:20:53.686Z,29.70
2022-10-16T11:23:27.028Z,29.63
2022-10-16T11:25:54.578Z,29.96
2022-10-16T11:28:26.541Z,29.79
2022-10-16T11:31:16.633Z,30.01
2022-10-16T11:33:45.303Z,30.14
2022-10-16T11:36:17.600Z,30.32
2022-10-16T11:38:56.280Z,30.13
2022-10-16T11:41:25.367Z,29.93
2022-10-16T11:44:16.060Z,31.32
2022-10-16T11:46:59.011Z,31.35
2022-10-16T11:49:26.638Z,32.07
2022-10-16T11:54:52.846Z,31.70
2022-10-16T11:57:40.682Z,31.21
2022-10-16T12:00:15.414Z,31.74
2022-10-16T12:02:48.653Z,31.36
2022-10-16T12:05:19.236Z,30.75
2022-10-16T12:07:56.991Z,31.51
2022-10-16T12:10:27.612Z,31.83
2022-10-16T12:12:54.989Z,31.89
2022-10-16T12:15:46.987Z,31.05
2022-10-16T12:18:23.043Z,30.66
2022-10-16T12:21:00.112Z,30.82
2022-10-16T12:23:28.374Z,31.10
2022-10-16T12:25:56.122Z,30.13
2022-10-16T12:28:23.896Z,30.99
2022-10-16T12:30:54.731Z,29.30
2022-10-16T12:33:28.919Z,29.62
2022-10-16T12:35:56.235Z,29.42
2022-10-16T12:38:27.569Z,30.32
2022-10-16T12:41:02.098Z,29.77
2022-10-16T12:43:38.792Z,29.86
2022-10-16T12:46:07.275Z,29.47
2022-10-16T12:48:48.313Z,29.58
2022-10-16T12:51:26.440Z,30.10
2022-10-16T12:54:03.735Z,30.76
2022-10-16T12:56:44.417Z,31.83
2022-10-16T12:59:20.413Z,31.43
2022-10-16T13:01:53.923Z,31.24
2022-10-16T13:04:23.302Z,30.70
2022-10-16T13:07:09.691Z,31.22
2022-10-16T13:09:41.837Z,31.24
2022-10-16T13:12:17.486Z,31.73
2022-10-16T13:14:55.231Z,32.12
2022-10-16T13:17:28.397Z,32.30
2022-10-16T13:20:08.662Z,31.90
2022-10-16T13:22:37.201Z,31.53
2022-10-16T13:25:23.249Z,31.77
2022-10-16T13:27:50.286Z,32.33
2022-10-16T13:30:17.515Z,31.72
2022-10-16T13:32:45.783Z,31.62
2022-10-16T13:35:26.626Z,32.42
2022-10-16T13:38:03.957Z,33.21
2022-10-16T13:40:31.881Z,31.95
2022-10-16T13:43:00.396Z,31.98
2022-10-16T13:45:27.668Z,32.06
2022-10-16T13:48:04.475Z,31.62
2022-10-16T13:50:31.496Z,31.83
2022-10-16T13:53:08.152Z,32.79
2022-10-16T13:55:35.195Z,33.86
2022-10-16T13:58:06.469Z,34.15
2022-10-16T14:00:34.040Z,36.15
2022-10-16T14:03:05.527Z,36.84
2022-10-16T14:05:32.649Z,38.07
2022-10-16T14:08:00.127Z,37.11
2022-10-16T14:10:31.153Z,37.85
2022-10-16T14:13:04.397Z,40.86
2022-10-16T14:15:31.781Z,39.97
2022-10-16T14:17:59.237Z,39.62
2022-10-16T14:20:28.001Z,41.70
2022-10-16T14:23:05.049Z,43.89
2022-10-16T14:25:32.764Z,43.69
2022-10-16T14:28:17.972Z,46.08
2022-10-16T14:30:55.049Z,50.83
2022-10-16T14:33:23.779Z,48.29
2022-10-16T14:36:02.937Z,51.57
2022-10-16T14:38:30.374Z,50.67
2022-10-16T14:40:58.318Z,52.29
2022-10-16T14:43:35.138Z,54.45
2022-10-16T14:46:02.548Z,55.76
2022-10-16T14:48:29.879Z,55.32
2022-10-16T14:50:56.925Z,55.98
2022-10-16T14:53:24.021Z,59.04
2022-10-16T14:55:51.073Z,60.48
2022-10-16T14:58:22.720Z,60.91
2022-10-16T15:00:49.968Z,61.60
2022-10-16T15:03:17.118Z,62.54
2022-10-16T15:05:44.281Z,62.67
2022-10-16T15:08:13.340Z,63.91
2022-10-16T15:10:41.081Z,61.57
2022-10-16T15:13:16.124Z,64.90
2022-10-16T15:15:47.993Z,64.89
2022-10-16T15:18:21.379Z,64.84
2022-10-16T15:20:49.213Z,65.98
2022-10-16T15:23:17.546Z,65.84
2022-10-16T15:25:45.529Z,64.94
2022-10-16T15:28:12.954Z,66.57
2022-10-16T15:30:40.557Z,67.33
2022-10-16T15:33:12.573Z,67.33
2022-10-16T15:35:40.302Z,67.94
2022-10-16T15:38:07.634Z,67.72
2022-10-16T15:40:35.344Z,68.55
2022-10-16T15:43:02.512Z,67.83
2022-10-16T15:45:29.590Z,68.35
2022-10-16T15:47:56.949Z,68.33
2022-10-16T15:50:23.970Z,67.86
2022-10-16T15:52:52.374Z,68.55
2022-10-16T15:55:19.723Z,69.62
2022-10-16T15:57:46.829Z,69.94
2022-10-16T16:00:18.762Z,69.57
2022-10-16T16:02:46.889Z,70.42
2022-10-16T16:05:13.895Z,70.36
2022-10-16T16:07:41.657Z,71.44
2022-10-16T16:10:09.203Z,70.65
2022-10-16T16:12:38.080Z,67.57
2022-10-16T16:15:06.836Z,69.92
2022-10-16T16:17:34.200Z,69.97
2022-10-16T16:20:01.309Z,70.16
2022-10-16T16:22:28.912Z,70.01
2022-10-16T16:24:56.346Z,69.84
2022-10-16T16:27:26.289Z,70.32
2022-10-16T16:29:56.193Z,68.42
2022-10-16T16:32:23.326Z,68.74
2022-10-16T16:34:50.904Z,67.74
2022-10-16T16:37:18.099Z,65.05
2022-10-16T16:39:47.991Z,66.62
2022-10-16T16:42:15.013Z,65.28
2022-10-16T16:44:42.047Z,63.73
2022-10-16T16:47:09.966Z,65.74
2022-10-16T16:49:37.040Z,65.88
2022-10-16T16:52:04.330Z,65.54
2022-10-16T16:54:31.563Z,65.35
2022-10-16T16:56:58.649Z,65.11
2022-10-16T16:59:25.683Z,66.71
2022-10-16T17:01:56.729Z,67.16
2022-10-16T17:04:24.419Z,67.39
2022-10-16T17:06:51.432Z,65.64
2022-10-16T17:09:18.601Z,65.52
2022-10-16T17:11:49.252Z,67.46
2022-10-16T17:14:17.872Z,66.32
2022-10-16T17:16:45.077Z,65.95
2022-10-16T17:19:13.294Z,65.72
2022-10-16T17:21:43.530Z,65.00
2022-10-16T17:24:11.140Z,65.23
2022-10-16T17:26:39.414Z,63.49
2022-10-16T17:29:06.701Z,63.47
2022-10-16T17:31:34.676Z,63.85
2022-10-16T17:34:02.161Z,63.27
2022-10-16T17:36:31.051Z,65.77
2022-10-16T17:39:01.365Z,65.47
2022-10-16T17:41:28.417Z,64.71
2022-10-16T17:43:55.646Z,64.81
2022-10-16T17:46:23.566Z,64.92
2022-10-16T17:48:51.747Z,65.97
2022-10-16T17:51:19.195Z,65.38
2022-10-16T17:53:50.730Z,64.25
2022-10-16T17:56:20.261Z,64.47
2022-10-16T17:58:51.678Z,64.84
2022-10-16T18:01:29.937Z,65.00
2022-10-16T18:04:07.175Z,65.21
2022-10-16T18:06:37.361Z,65.80
2022-10-16T18:09:06.744Z,65.85
2022-10-16T18:11:34.003Z,66.02
2022-10-16T18:14:01.529Z,65.08
2022-10-16T18:16:28.973Z,65.91
2022-10-16T18:18:59.401Z,66.05
2022-10-16T18:21:30.038Z,64.46
2022-10-16T18:23:57.825Z,64.55
2022-10-16T18:26:24.989Z,64.87
2022-10-16T18:28:54.278Z,65.39
2022-10-16T18:31:21.504Z,66.04
2022-10-16T18:33:50.499Z,66.86
2022-10-16T18:36:19.151Z,65.82
2022-10-16T18:38:46.802Z,64.50
2022-10-16T18:41:14.065Z,64.70
2022-10-16T18:43:41.132Z,64.64
2022-10-16T18:46:09.058Z,65.32
2022-10-16T18:48:37.588Z,65.48
2022-10-16T18:51:09.791Z,65.25
2022-10-16T18:53:37.617Z,66.38
2022-10-16T18:56:06.623Z,65.04
2022-10-16T18:58:34.622Z,64.24
2022-10-16T19:01:05.801Z,66.08
2022-10-16T19:03:33.500Z,66.50
2022-10-16T19:06:03.822Z,65.48
2022-10-16T19:08:33.752Z,66.52
2022-10-16T19:11:04.954Z,67.31
2022-10-16T19:13:32.881Z,67.80
2022-10-16T19:16:09.411Z,67.17
2022-10-16T19:18:46.087Z,67.62
2022-10-16T19:21:13.377Z,68.16
2022-10-16T19:23:41.873Z,68.03
2022-10-16T19:26:13.509Z,68.72
2022-10-16T19:28:42.303Z,68.52
2022-10-16T19:31:11.658Z,69.28
2022-10-16T19:33:38.962Z,68.24
2022-10-16T19:36:27.255Z,69.94
2022-10-16T19:38:55.509Z,69.20
2022-10-16T19:41:23.800Z,69.48
2022-10-16T19:43:50.993Z,70.26
2022-10-16T19:46:19.092Z,70.37
2022-10-16T19:48:46.692Z,69.61
2022-10-16T19:51:17.274Z,69.56
2022-10-16T19:53:44.640Z,70.55
2022-10-16T19:56:15.353Z,71.56
2022-10-16T19:58:45.574Z,71.83
2022-10-16T20:01:13.043Z,72.05
2022-10-16T20:03:40.510Z,71.89
2022-10-16T20:06:08.133Z,72.37
2022-10-16T20:08:36.505Z,71.51
2022-10-16T20:11:03.657Z,71.27
2022-10-16T20:13:30.867Z,72.16
2022-10-16T20:15:57.940Z,71.48
2022-10-16T20:18:26.897Z,70.93
2022-10-16T20:20:54.042Z,71.28
2022-10-16T20:23:21.102Z,72.33
2022-10-16T20:25:50.297Z,71.31
2022-10-16T20:28:19.232Z,72.78
2022-10-16T20:30:47.121Z,73.77
2022-10-16T20:33:15.432Z,74.74
2022-10-16T20:35:43.253Z,74.90
2022-10-16T20:38:10.517Z,74.11
2022-10-16T20:40:38.190Z,74.14
2022-10-16T20:43:05.845Z,74.81
2022-10-16T20:45:33.435Z,74.81
2022-10-16T20:48:00.536Z,75.62
2022-10-16T20:50:31.044Z,75.20
2022-10-16T20:52:58.491Z,74.96
2022-10-16T20:55:25.892Z,75.73
2022-10-16T20:57:53.324Z,75.84
2022-10-16T21:00:20.459Z,76.41
2022-10-16T21:02:51.530Z,75.81
2022-10-16T21:05:18.818Z,75.73
2022-10-16T21:07:46.196Z,75.66
2022-10-16T21:10:13.858Z,76.08
2022-10-16T21:12:41.342Z,76.42
2022-10-16T21:15:15.988Z,76.62
2022-10-16T21:17:46.047Z,76.20
2022-10-16T21:20:13.673Z,76.38
2022-10-16T21:22:40.730Z,76.82
2022-10-16T21:25:08.191Z,77.50
2022-10-16T21:27:38.808Z,77.19
2022-10-16T21:30:06.517Z,77.93
2022-10-16T21:32:37.150Z,77.68
2022-10-16T21:35:04.698Z,77.90
2022-10-16T21:37:31.969Z,78.33
2022-10-16T21:39:59.039Z,77.59
2022-10-16T21:42:26.289Z,77.84
2022-10-16T21:44:53.491Z,78.69
2022-10-16T21:47:20.578Z,79.07
2022-10-16T21:49:47.765Z,79.15
2022-10-16T21:52:14.853Z,78.95
2022-10-16T21:54:42.591Z,79.26
2022-10-16T21:57:10.337Z,79.35
2022-10-16T21:59:38.053Z,79.25
2022-10-16T22:02:06.078Z,79.68
2022-10-16T22:04:33.437Z,80.41
2022-10-16T22:07:00.474Z,80.34
2022-10-16T22:09:28.405Z,80.61
2022-10-16T22:11:55.472Z,80.29
2022-10-16T22:14:22.531Z,80.30
2022-10-16T22:16:49.869Z,80.12
2022-10-16T22:19:18.063Z,79.95
2022-10-16T22:21:48.157Z,80.30
2022-10-16T22:24:15.468Z,80.78
2022-10-16T22:26:43.247Z,80.41
2022-10-16T22:29:11.370Z,80.72
2022-10-16T22:31:40.418Z,80.69
2022-10-16T22:34:07.998Z,80.99
2022-10-16T22:36:35.159Z,80.58
2022-10-16T22:39:02.531Z,80.49
2022-10-16T22:41:29.696Z,80.10
2022-10-16T22:43:56.866Z,80.28
2022-10-16T22:46:24.741Z,80.13
2022-10-16T22:48:52.008Z,80.03
2022-10-16T22:51:19.210Z,79.48
2022-10-16T22:53:46.573Z,79.51
2022-10-16T22:56:13.844Z,79.03
2022-10-16T22:58:41.103Z,79.42
2022-10-16T23:01:15.988Z,79.28
2022-10-16T23:03:43.732Z,79.61
2022-10-16T23:06:10.815Z,79.27
2022-10-16T23:08:37.832Z,79.59
2022-10-16T23:11:06.877Z,79.68
2022-10-16T23:13:35.955Z,79.85
2022-10-16T23:16:03.429Z,80.52
2022-10-16T23:18:30.545Z,80.38
2022-10-16T23:20:57.671Z,80.42
2022-10-16T23:23:24.730Z,80.23
2022-10-16T23:25:51.732Z,80.62
2022-10-16T23:28:18.874Z,80.54
2022-10-16T23:30:46.085Z,80.78
2022-10-16T23:33:13.813Z,81.15
2022-10-16T23:35:40.938Z,80.69
2022-10-16T23:38:07.964Z,81.30
2022-10-16T23:40:35.165Z,81.40
2022-10-16T23:43:02.488Z,81.67
2022-10-16T23:45:29.730Z,81.64
2022-10-16T23:47:57.051Z,82.05
2022-10-16T23:50:24.234Z,82.01
2022-10-16T23:52:51.244Z,82.41
2022-10-16T23:55:18.457Z,82.10
2022-10-16T23:57:45.481Z,82.70
